Time;durP1;ratioP1;P1;durP2;ratioP2;P2;SDS_P1;SDS_P2;PMS_P1;PMS_P2;Temp;Humidity;BMP_temperature;BMP_pressure;BME280_temperature;BME280_humidity;BME280_pressure;Samples;Min_cycle;Max_cycle;Signal;HPM_P1;HPM_P2
2024/01/26 00:09:25;;;;;;;9.7;3.7;;;;;;;4.29;85.85;99191.666666667;;;;
2024/01/26 00:19:25;;;;;;;9.5;4.3;;;;;;;4.14;86.53;99208.333333333;;;;
2024/01/26 00:30:25;;;;;;;9.5;4.3;;;;;;;4.11;86.27;99218.333333333;;;;
2024/01/26 00:40:25;;;;;;;9.5;4.3;;;;;;;3.96;85.89;99220;;;;
2024/01/26 00:50:25;;;;;;;8.6;3;;;;;;;4.02;85.76;99235;;;;
2024/01/26 01:00:26;;;;;;;8.6;3;;;;;;;3.9;86.9;99240;;;;
2024/01/26 01:11:25;;;;;;;8.6;3;;;;;;;3.85;87.68;99253.333333333;;;;
2024/01/26 01:22:25;;;;;;;8.8;3.7;;;;;;;3.95;87.92;99256.666666667;;;;
2024/01/26 01:32:25;;;;;;;8.8;3.7;;;;;;;3.92;88.3;99258.333333333;;;;
2024/01/26 01:43:25;;;;;;;8.8;3.7;;;;;;;3.58;89.26;99258.333333333;;;;
2024/01/26 01:53:25;;;;;;;7.1;2.3;;;;;;;3.55;89.1;99258.333333333;;;;
2024/01/26 02:04:26;;;;;;;7.1;2.3;;;;;;;3.54;89.39;99263.333333333;;;;
2024/01/26 02:14:25;;;;;;;7.1;2.3;;;;;;;3.63;89.34;99270;;;;
2024/01/26 02:25:25;;;;;;;5.6;2.4;;;;;;;3.5;88.75;99268.333333333;;;;
2024/01/26 02:36:25;;;;;;;5.6;2.4;;;;;;;3.07;88.78;99278.333333333;;;;
2024/01/26 02:46:25;;;;;;;5.6;2.4;;;;;;;2.79;89.53;99278.333333333;;;;
2024/01/26 02:56:25;;;;;;;3.5;1.8;;;;;;;2.68;89.91;99283.333333333;;;;
2024/01/26 03:06:25;;;;;;;3.5;1.8;;;;;;;2.69;89.93;99280;;;;
2024/01/26 03:17:25;;;;;;;4.4;2.1;;;;;;;2.71;89.82;99286.666666667;;;;
2024/01/26 03:27:27;;;;;;;4.4;2.1;;;;;;;2.85;89.75;99296.666666667;;;;
2024/01/26 03:38:25;;;;;;;4.4;2.1;;;;;;;2.94;90.11;99300;;;;
2024/01/26 03:48:25;;;;;;;6.3;2.7;;;;;;;3;90.38;99308.333333333;;;;
2024/01/26 03:59:26;;;;;;;6.3;2.7;;;;;;;3.17;90.58;99311.666666667;;;;
2024/01/26 04:10:25;;;;;;;6.3;2.7;;;;;;;3.22;90.01;99315;;;;
2024/01/26 04:20:26;;;;;;;7.2;4;;;;;;;3.22;89.45;99318.333333333;;;;
2024/01/26 04:31:26;;;;;;;7.2;4;;;;;;;3.23;88.47;99331.666666667;;;;
2024/01/26 04:41:26;;;;;;;7.2;4;;;;;;;3.34;88.25;99351.666666667;;;;
2024/01/26 04:52:26;;;;;;;11.5;3.9;;;;;;;3.33;87.47;99365;;;;
2024/01/26 05:03:26;;;;;;;11.5;3.9;;;;;;;3.37;86.95;99368.333333333;;;;
2024/01/26 05:13:26;;;;;;;11.5;3.9;;;;;;;3.41;86.77;99376.666666667;;;;
2024/01/26 05:24:25;;;;;;;7.1;3.4;;;;;;;3.34;86.73;99390;;;;
2024/01/26 05:34:26;;;;;;;7.1;3.4;;;;;;;3.38;86.36;99395;;;;
2024/01/26 05:45:25;;;;;;;7.1;3.4;;;;;;;3.38;86.27;99398.333333333;;;;
2024/01/26 05:56:26;;;;;;;9.6;4.1;;;;;;;3.38;86.53;99395;;;;
2024/01/26 06:06:26;;;;;;;9.6;4.1;;;;;;;3.33;86.38;99388.333333333;;;;
2024/01/26 06:17:25;;;;;;;7.6;4.1;;;;;;;3.36;86.39;99396.666666667;;;;
2024/01/26 06:28:25;;;;;;;7.6;4.1;;;;;;;3.42;86.32;99395;;;;
2024/01/26 06:39:26;;;;;;;7.6;4.1;;;;;;;3.36;86.2;99403.333333333;;;;
2024/01/26 06:50:26;;;;;;;8.5;4.8;;;;;;;3.38;85.77;99411.666666667;;;;
2024/01/26 07:01:26;;;;;;;8.5;4.8;;;;;;;3.45;84.75;99413.333333333;;;;
2024/01/26 07:12:26;;;;;;;8.5;4.8;;;;;;;3.48;84.95;99425;;;;
2024/01/26 07:23:26;;;;;;;9.9;4.4;;;;;;;3.62;85.4;99421.666666667;;;;
2024/01/26 07:34:26;;;;;;;9.9;4.4;;;;;;;3.64;85.35;99418.333333333;;;;
2024/01/26 07:44:26;;;;;;;9.9;4.4;;;;;;;3.67;85.46;99428.333333333;;;;
2024/01/26 07:55:26;;;;;;;8.4;4.8;;;;;;;3.64;85.04;99426;;;;
2024/01/26 08:06:26;;;;;;;8.4;4.8;;;;;;;3.75;84.79;99426;;;;
2024/01/26 08:16:26;;;;;;;8.4;4.8;;;;;;;3.82;85;99434;;;;
2024/01/26 08:27:26;;;;;;;12.9;6.4;;;;;;;3.82;84.32;99432;;;;
2024/01/26 08:38:26;;;;;;;12.9;6.4;;;;;;;3.98;83.9;99438;;;;
2024/01/26 08:49:26;;;;;;;11;5.9;;;;;;;3.92;83.75;99448;;;;
2024/01/26 09:00:26;;;;;;;11;5.9;;;;;;;4.08;84.11;99456;;;;
2024/01/26 09:10:26;;;;;;;11;5.9;;;;;;;4.16;83.9;99444;;;;
2024/01/26 09:21:26;;;;;;;10.7;5.8;;;;;;;4.38;83.26;99454;;;;
2024/01/26 09:31:26;;;;;;;10.7;5.8;;;;;;;4.35;82.72;99436;;;;
2024/01/26 09:42:26;;;;;;;10.7;5.8;;;;;;;4.39;82.74;99424;;;;
2024/01/26 09:52:26;;;;;;;12.9;5.9;;;;;;;4.39;82.36;99416;;;;
2024/01/26 10:03:28;;;;;;;12.9;5.9;;;;;;;4.52;82.48;99410;;;;
2024/01/26 10:14:26;;;;;;;12.9;5.9;;;;;;;4.6;82.56;99402;;;;
2024/01/26 10:24:26;;;;;;;16.7;7.9;;;;;;;4.73;82.22;99400;;;;
2024/01/26 10:35:26;;;;;;;16.7;7.9;;;;;;;4.72;81.72;99380;;;;
2024/01/26 10:45:27;;;;;;;16.7;7.9;;;;;;;4.74;81.23;99376;;;;
2024/01/26 10:55:26;;;;;;;13.8;6.6;;;;;;;4.81;81.22;99378;;;;
2024/01/26 11:06:26;;;;;;;13.8;6.6;;;;;;;4.6;80.29;99362;;;;
2024/01/26 11:17:26;;;;;;;10;5.5;;;;;;;4.76;79.67;99350;;;;
2024/01/26 11:27:26;;;;;;;10;5.5;;;;;;;4.69;79.01;99328;;;;
2024/01/26 11:38:26;;;;;;;10;5.5;;;;;;;4.69;79.26;99300;;;;
2024/01/26 11:49:25;;;;;;;7.5;4.1;;;;;;;4.81;77.08;99290;;;;
2024/01/26 11:59:25;;;;;;;7.5;4.1;;;;;;;5.01;75.32;99284;;;;
2024/01/26 12:09:26;;;;;;;7.5;4.1;;;;;;;5.12;72.23;99288;;;;
2024/01/26 12:20:26;;;;;;;5.9;3.5;;;;;;;5.04;74.25;99278;;;;
2024/01/26 12:30:26;;;;;;;5.9;3.5;;;;;;;4.99;75.46;99264;;;;
2024/01/26 12:41:26;;;;;;;5.9;3.5;;;;;;;5.15;75.29;99250;;;;
2024/01/26 12:51:27;;;;;;;7.4;3.9;;;;;;;5.41;75.12;99232;;;;
2024/01/26 13:01:26;;;;;;;7.4;3.9;;;;;;;5.69;74.86;99216;;;;
2024/01/26 13:12:26;;;;;;;7.4;3.9;;;;;;;5.66;71.12;99182;;;;
2024/01/26 13:23:26;;;;;;;8;3.6;;;;;;;6.06;70.88;99174;;;;
2024/01/26 13:34:26;;;;;;;8;3.6;;;;;;;6.09;68.25;99150;;;;
2024/01/26 13:45:26;;;;;;;8;3.6;;;;;;;5.85;68.19;99148;;;;
2024/01/26 13:56:26;;;;;;;6.1;3.1;;;;;;;5.58;67.27;99134;;;;
2024/01/26 14:06:26;;;;;;;6.1;3.1;;;;;;;5.54;67.88;99120;;;;
2024/01/26 14:17:26;;;;;;;6;3;;;;;;;5.46;67.96;99102;;;;
2024/01/26 14:28:26;;;;;;;6;3;;;;;;;5.24;68.18;99096;;;;
2024/01/26 14:38:26;;;;;;;6;3;;;;;;;5.2;68.8;99074;;;;
2024/01/26 14:48:26;;;;;;;8.3;5;;;;;;;5.08;69.3;99056;;;;
2024/01/26 14:58:28;;;;;;;8.3;5;;;;;;;4.78;71.01;99018;;;;
2024/01/26 15:09:27;;;;;;;8.3;5;;;;;;;4.41;71.48;99002;;;;
2024/01/26 15:20:26;;;;;;;10.1;5.7;;;;;;;3.96;73.16;99002;;;;
2024/01/26 15:31:26;;;;;;;10.1;5.7;;;;;;;3.73;74.64;98978;;;;
2024/01/26 15:41:27;;;;;;;10.1;5.7;;;;;;;3.61;76.12;98982;;;;
2024/01/26 15:52:28;;;;;;;13.3;8.4;;;;;;;3.41;77;98955;;;;
2024/01/26 16:03:26;;;;;;;13.3;8.4;;;;;;;3.27;76.83;98923.333333333;;;;
2024/01/26 16:14:26;;;;;;;13.3;8.4;;;;;;;3.14;77.11;98901.666666667;;;;
2024/01/26 16:24:26;;;;;;;20;12.2;;;;;;;2.96;77.42;98891.666666667;;;;
2024/01/26 16:35:26;;;;;;;20;12.2;;;;;;;2.86;78.21;98880;;;;
2024/01/26 16:46:26;;;;;;;14.4;8.1;;;;;;;3.08;78.19;98860;;;;
2024/01/26 16:57:26;;;;;;;14.4;8.1;;;;;;;3.31;77.97;98840;;;;
2024/01/26 17:08:28;;;;;;;14.4;8.1;;;;;;;3.5;77.38;98821.666666667;;;;
2024/01/26 17:18:26;;;;;;;12.4;6.7;;;;;;;3.64;76.65;98808.333333333;;;;
2024/01/26 17:29:26;;;;;;;12.4;6.7;;;;;;;3.77;76.06;98771.666666667;;;;
2024/01/26 17:39:26;;;;;;;12.4;6.7;;;;;;;3.93;73.77;98775;;;;
2024/01/26 17:50:26;;;;;;;10.8;5.1;;;;;;;4.09;73.28;98756.666666667;;;;
2024/01/26 18:01:27;;;;;;;10.8;5.1;;;;;;;4.14;72.69;98746.666666667;;;;
2024/01/26 18:12:26;;;;;;;10.8;5.1;;;;;;;4.19;72.55;98731.666666667;;;;
2024/01/26 18:22:26;;;;;;;12.1;6.7;;;;;;;4.33;71.5;98718.333333333;;;;
2024/01/26 18:33:26;;;;;;;12.1;6.7;;;;;;;4.54;71.36;98706.666666667;;;;
2024/01/26 18:43:26;;;;;;;12.1;6.7;;;;;;;4.64;72.66;98693.333333333;;;;
2024/01/26 18:53:26;;;;;;;14.3;7.8;;;;;;;4.72;73.33;98675;;;;
2024/01/26 19:03:26;;;;;;;14.3;7.8;;;;;;;4.83;73.8;98673.333333333;;;;
2024/01/26 19:14:26;;;;;;;14.3;7.8;;;;;;;4.84;76.23;98668.333333333;;;;
2024/01/26 19:25:26;;;;;;;16.3;8.6;;;;;;;4.88;78.56;98675;;;;
2024/01/26 19:35:26;;;;;;;16.3;8.6;;;;;;;4.83;79.93;98675;;;;
2024/01/26 19:45:26;;;;;;;23.9;13.8;;;;;;;4.6;81.03;98680;;;;
2024/01/26 19:55:26;;;;;;;23.9;13.8;;;;;;;4.52;81.84;98666.666666667;;;;
2024/01/26 20:06:27;;;;;;;23.9;13.8;;;;;;;4.41;83.26;98645;;;;
2024/01/26 20:17:26;;;;;;;32.3;18.8;;;;;;;4.42;83.64;98635;;;;
2024/01/26 20:27:26;;;;;;;32.3;18.8;;;;;;;4.51;83.98;98633.333333333;;;;
2024/01/26 20:38:27;;;;;;;32.3;18.8;;;;;;;4.41;85.16;98651.666666667;;;;
2024/01/26 20:48:26;;;;;;;35.7;23;;;;;;;4.34;86.19;98663.333333333;;;;
2024/01/26 20:59:26;;;;;;;35.7;23;;;;;;;4.14;87.48;98661.666666667;;;;
2024/01/26 21:09:26;;;;;;;35.7;23;;;;;;;4.22;87.76;98666.666666667;;;;
2024/01/26 21:19:26;;;;;;;35.4;22.5;;;;;;;4.14;88.25;98670;;;;
2024/01/26 21:29:26;;;;;;;35.4;22.5;;;;;;;4.22;89.57;98686.666666667;;;;
2024/01/26 21:39:26;;;;;;;35.4;22.5;;;;;;;4.53;91.47;98683.333333333;;;;
2024/01/26 21:49:26;;;;;;;37.6;22.4;;;;;;;4.95;91.81;98698.333333333;;;;
2024/01/26 21:59:26;;;;;;;37.6;22.4;;;;;;;5.32;91.36;98705;;;;
2024/01/26 22:10:26;;;;;;;37.6;22.4;;;;;;;5.58;90.59;98721.666666667;;;;
2024/01/26 22:21:27;;;;;;;11.9;6.6;;;;;;;5.64;89.95;98751.666666667;;;;
2024/01/26 22:32:27;;;;;;;11.9;6.6;;;;;;;5.59;89.54;98768.333333333;;;;
2024/01/26 22:43:27;;;;;;;11.9;6.6;;;;;;;5.55;91.1;98790;;;;
2024/01/26 22:53:26;;;;;;;8.8;5.2;;;;;;;5.47;91.6;98798.333333333;;;;
2024/01/26 23:04:26;;;;;;;8.8;5.2;;;;;;;5.59;88.48;98803.333333333;;;;
2024/01/26 23:15:26;;;;;;;8.1;4.9;;;;;;;5.65;88.65;98831.666666667;;;;
2024/01/26 23:26:26;;;;;;;8.1;4.9;;;;;;;5.68;87.7;98848.333333333;;;;
2024/01/26 23:36:27;;;;;;;8.1;4.9;;;;;;;5.67;87.33;98856.666666667;;;;
2024/01/26 23:46:26;;;;;;;3.6;1.9;;;;;;;5.67;86.52;98863.333333333;;;;
2024/01/26 23:57:26;;;;;;;3.6;1.9;;;;;;;5.06;87.39;98905;;;;
